Time;durP1;ratioP1;P1;durP2;ratioP2;P2;SDS_P1;SDS_P2;PMS_P1;PMS_P2;Temp;Humidity;BMP_temperature;BMP_pressure;BME280_temperature;BME280_humidity;BME280_pressure;Samples;Min_cycle;Max_cycle;Signal;HPM_P1;HPM_P2
2024/04/04 00:01:09;;;;;;;4.77;2.80;;;;;;;;;;762879;183;750924;-66
2024/04/04 00:03:35;;;;;;;7.00;2.50;;;;;;;;;;762441;183;706762;-67
2024/04/04 00:06:01;;;;;;;5.20;2.80;;;;;;;;;;759269;183;818143;-67
2024/04/04 00:08:27;;;;;;;5.43;2.83;;;;;;;;;;751446;184;912762;-66
2024/04/04 00:10:56;;;;;;;5.80;3.50;;;;;;;;;;752931;184;780920;-67
2024/04/04 00:13:19;;;;;;;6.50;2.63;;;;;;;;;;754363;183;681766;-67
2024/04/04 00:15:44;;;;;;;3.63;2.47;;;;;;;;;;751685;184;813748;-67
2024/04/04 00:18:10;;;;;;;3.97;2.45;;;;;;;;;;755262;184;831578;-67
2024/04/04 00:20:37;;;;;;;7.27;2.60;;;;;;;;;;764604;183;814995;-66
2024/04/04 00:23:03;;;;;;;5.75;3.25;;;;;;;;;;754670;184;914265;-66
2024/04/04 00:25:29;;;;;;;6.50;2.60;;;;;;;;;;758621;184;817685;-67
2024/04/04 00:27:54;;;;;;;4.60;2.23;;;;;;;;;;757656;184;787655;-67
2024/04/04 00:30:20;;;;;;;6.40;3.00;;;;;;;;;;753435;184;820023;-67
2024/04/04 00:32:46;;;;;;;4.13;2.10;;;;;;;;;;754496;185;912164;-67
2024/04/04 00:35:12;;;;;;;4.07;2.25;;;;;;;;;;762320;183;815987;-66
2024/04/04 00:37:38;;;;;;;5.80;2.17;;;;;;;;;;753636;183;966099;-66
2024/04/04 00:40:05;;;;;;;3.97;2.60;;;;;;;;;;760698;183;869937;-66
2024/04/04 00:42:31;;;;;;;5.13;2.33;;;;;;;;;;754460;183;914917;-67
2024/04/04 00:44:55;;;;;;;5.27;2.03;;;;;;;;;;758991;184;871879;-67
2024/04/04 00:47:21;;;;;;;5.60;2.37;;;;;;;;;;758526;183;919020;-67
2024/04/04 00:49:47;;;;;;;6.83;2.80;;;;;;;;;;757931;183;914521;-67
2024/04/04 00:52:13;;;;;;;5.13;2.53;;;;;;;;;;758774;183;912674;-66
2024/04/04 00:54:39;;;;;;;3.50;2.03;;;;;;;;;;750557;184;820364;-66
2024/04/04 00:57:05;;;;;;;4.83;1.90;;;;;;;;;;753801;183;1016672;-67
2024/04/04 00:59:31;;;;;;;4.00;2.17;;;;;;;;;;756500;184;912225;-66
2024/04/04 01:01:56;;;;;;;3.93;2.27;;;;;;;;;;756410;184;826684;-67
2024/04/04 01:04:22;;;;;;;8.17;2.50;;;;;;;;;;756707;183;918693;-65
2024/04/04 01:06:48;;;;;;;6.07;2.13;;;;;;;;;;767012;180;814119;-67
2024/04/04 01:09:14;;;;;;;11.30;2.37;;;;;;;;;;752342;183;914695;-66
2024/04/04 01:11:40;;;;;;;4.00;2.47;;;;;;;;;;757036;183;806438;-65
2024/04/04 01:14:06;;;;;;;4.03;1.90;;;;;;;;;;752582;184;911284;-64
2024/04/04 01:16:31;;;;;;;4.60;2.17;;;;;;;;;;757351;184;859751;-65
2024/04/04 01:18:57;;;;;;;4.30;2.70;;;;;;;;;;761923;183;790402;-64
2024/04/04 01:21:23;;;;;;;4.20;2.72;;;;;;;;;;754388;184;908968;-65
2024/04/04 01:23:49;;;;;;;4.93;2.77;;;;;;;;;;759752;184;845803;-66
2024/04/04 01:26:15;;;;;;;5.60;2.90;;;;;;;;;;753648;183;920132;-66
2024/04/04 01:28:41;;;;;;;4.90;2.50;;;;;;;;;;754504;183;770919;-66
2024/04/04 01:31:06;;;;;;;5.93;3.07;;;;;;;;;;761927;184;908007;-66
2024/04/04 01:33:32;;;;;;;5.32;2.70;;;;;;;;;;759000;183;927285;-66
2024/04/04 01:35:58;;;;;;;5.70;2.50;;;;;;;;;;756590;183;844414;-67
2024/04/04 01:38:24;;;;;;;8.37;3.00;;;;;;;;;;759351;184;816834;-66
2024/04/04 01:40:50;;;;;;;4.50;2.80;;;;;;;;;;757373;183;919458;-67
2024/04/04 01:43:16;;;;;;;7.93;4.10;;;;;;;;;;759982;184;920811;-66
2024/04/04 01:45:41;;;;;;;6.97;2.60;;;;;;;;;;763135;183;764352;-67
2024/04/04 01:48:07;;;;;;;6.13;2.90;;;;;;;;;;758957;184;765970;-65
2024/04/04 01:50:33;;;;;;;7.50;3.87;;;;;;;;;;753056;184;944278;-66
2024/04/04 01:52:59;;;;;;;4.63;3.50;;;;;;;;;;758220;183;783630;-66
2024/04/04 01:55:29;;;;;;;7.33;3.27;;;;;;;;;;760266;183;818819;-66
2024/04/04 01:57:51;;;;;;;6.63;3.97;;;;;;;;;;758140;183;942928;-66
2024/04/04 02:00:16;;;;;;;6.40;3.40;;;;;;;;;;759279;183;888244;-66
2024/04/04 02:02:42;;;;;;;5.97;3.43;;;;;;;;;;760302;184;919893;-67
2024/04/04 02:05:08;;;;;;;6.80;4.27;;;;;;;;;;753729;184;714762;-68
2024/04/04 02:07:34;;;;;;;6.73;3.50;;;;;;;;;;754277;184;914919;-67
2024/04/04 02:10:00;;;;;;;13.70;4.17;;;;;;;;;;762995;183;822272;-67
2024/04/04 02:12:26;;;;;;;8.83;3.70;;;;;;;;;;757685;183;910168;-67
2024/04/04 02:14:51;;;;;;;6.70;3.37;;;;;;;;;;752573;184;766500;-67
2024/04/04 02:17:18;;;;;;;4.77;3.10;;;;;;;;;;754565;182;755678;-68
2024/04/04 02:19:43;;;;;;;5.03;2.77;;;;;;;;;;754558;184;919192;-67
2024/04/04 02:22:09;;;;;;;4.50;3.50;;;;;;;;;;761103;183;817929;-66
2024/04/04 02:24:35;;;;;;;5.60;3.63;;;;;;;;;;756830;184;907986;-67
2024/04/04 02:27:01;;;;;;;6.67;3.43;;;;;;;;;;759573;183;936135;-68
2024/04/04 02:29:27;;;;;;;10.27;3.60;;;;;;;;;;748751;183;910703;-67
2024/04/04 02:31:52;;;;;;;5.80;2.93;;;;;;;;;;756628;183;916861;-68
2024/04/04 02:34:18;;;;;;;6.93;3.43;;;;;;;;;;762063;183;911479;-67
2024/04/04 02:36:44;;;;;;;4.00;2.70;;;;;;;;;;750498;184;810155;-66
2024/04/04 02:39:13;;;;;;;7.47;3.63;;;;;;;;;;756666;184;919648;-66
2024/04/04 02:41:39;;;;;;;4.57;2.97;;;;;;;;;;754984;183;918863;-68
2024/04/04 02:44:05;;;;;;;3.90;2.30;;;;;;;;;;760949;182;915039;-65
2024/04/04 02:46:30;;;;;;;5.30;2.63;;;;;;;;;;758031;183;878287;-66
2024/04/04 02:48:57;;;;;;;5.87;2.93;;;;;;;;;;752444;184;916276;-66
2024/04/04 02:51:22;;;;;;;5.57;2.50;;;;;;;;;;755521;184;817130;-66
2024/04/04 02:53:48;;;;;;;7.93;2.73;;;;;;;;;;752241;184;922123;-65
2024/04/04 02:56:14;;;;;;;6.57;2.80;;;;;;;;;;759428;184;920514;-65
2024/04/04 02:58:40;;;;;;;6.70;3.43;;;;;;;;;;758592;183;813254;-66
2024/04/04 03:01:05;;;;;;;4.70;2.60;;;;;;;;;;761839;183;816769;-66
2024/04/04 03:03:31;;;;;;;4.90;2.53;;;;;;;;;;758633;184;910548;-66
2024/04/04 03:05:57;;;;;;;5.00;3.20;;;;;;;;;;758665;183;916907;-66
2024/04/04 03:08:23;;;;;;;4.70;3.00;;;;;;;;;;751664;183;852126;-66
2024/04/04 03:10:49;;;;;;;5.70;3.33;;;;;;;;;;754527;184;890949;-65
2024/04/04 03:13:15;;;;;;;5.50;3.53;;;;;;;;;;764053;183;916130;-67
2024/04/04 03:15:41;;;;;;;5.07;2.70;;;;;;;;;;757420;184;739619;-68
2024/04/04 03:18:07;;;;;;;5.07;3.00;;;;;;;;;;758660;183;817903;-66
2024/04/04 03:20:33;;;;;;;8.83;3.50;;;;;;;;;;757615;183;811492;-66
2024/04/04 03:22:59;;;;;;;4.00;2.60;;;;;;;;;;757686;184;636472;-67
2024/04/04 03:25:25;;;;;;;5.67;2.37;;;;;;;;;;752024;183;719097;-65
2024/04/04 03:27:50;;;;;;;4.72;2.67;;;;;;;;;;751779;183;827985;-65
2024/04/04 03:30:16;;;;;;;6.57;2.83;;;;;;;;;;761377;182;710164;-65
2024/04/04 03:32:42;;;;;;;7.40;3.37;;;;;;;;;;759824;182;819722;-66
2024/04/04 03:35:08;;;;;;;4.33;3.17;;;;;;;;;;758634;182;745258;-66
2024/04/04 03:37:34;;;;;;;5.90;3.20;;;;;;;;;;761273;183;740204;-68
2024/04/04 03:40:00;;;;;;;9.50;4.27;;;;;;;;;;753503;184;787176;-65
2024/04/04 03:42:26;;;;;;;7.00;3.40;;;;;;;;;;757046;184;843397;-66
2024/04/04 03:44:52;;;;;;;7.10;3.95;;;;;;;;;;756373;184;878127;-66
2024/04/04 03:47:18;;;;;;;6.57;4.03;;;;;;;;;;765514;182;792207;-65
2024/04/04 03:49:43;;;;;;;8.40;4.47;;;;;;;;;;761463;182;815088;-66
2024/04/04 03:52:10;;;;;;;5.00;2.70;;;;;;;;;;758561;183;849074;-67
2024/04/04 03:54:36;;;;;;;6.10;2.87;;;;;;;;;;756128;183;830712;-66
2024/04/04 03:57:02;;;;;;;8.20;3.60;;;;;;;;;;755435;184;915003;-65
2024/04/04 03:59:27;;;;;;;5.43;2.93;;;;;;;;;;752554;184;810067;-66
2024/04/04 04:01:57;;;;;;;7.83;3.47;;;;;;;;;;757998;183;710804;-65
2024/04/04 04:04:19;;;;;;;5.03;3.13;;;;;;;;;;755082;183;919622;-65
2024/04/04 04:06:45;;;;;;;7.37;3.97;;;;;;;;;;754186;183;771168;-66
2024/04/04 04:09:11;;;;;;;5.53;3.10;;;;;;;;;;762176;183;709538;-66
2024/04/04 04:11:37;;;;;;;5.23;3.13;;;;;;;;;;760800;183;679486;-65
2024/04/04 04:14:03;;;;;;;4.35;2.37;;;;;;;;;;757658;183;814015;-66
2024/04/04 04:16:28;;;;;;;5.70;3.70;;;;;;;;;;754633;184;707553;-66
2024/04/04 04:18:54;;;;;;;5.25;3.05;;;;;;;;;;755487;183;711260;-65
2024/04/04 04:21:21;;;;;;;4.70;2.17;;;;;;;;;;764403;183;634432;-65
2024/04/04 04:23:47;;;;;;;4.83;2.37;;;;;;;;;;754365;183;808379;-66
2024/04/04 04:26:13;;;;;;;6.53;2.90;;;;;;;;;;760891;184;627233;-65
2024/04/04 04:28:38;;;;;;;4.23;2.50;;;;;;;;;;753663;183;826321;-66
2024/04/04 04:31:04;;;;;;;5.03;2.58;;;;;;;;;;758927;184;618212;-66
2024/04/04 04:33:30;;;;;;;8.20;2.50;;;;;;;;;;760852;184;625095;-65
2024/04/04 04:35:56;;;;;;;5.47;2.67;;;;;;;;;;757720;183;681579;-66
2024/04/04 04:38:22;;;;;;;5.70;2.30;;;;;;;;;;760438;183;636786;-65
2024/04/04 04:40:51;;;;;;;3.30;1.97;;;;;;;;;;761949;183;625336;-66
2024/04/04 04:43:14;;;;;;;4.87;2.20;;;;;;;;;;761084;183;631149;-65
2024/04/04 04:45:39;;;;;;;3.40;2.50;;;;;;;;;;761115;183;630691;-65
2024/04/04 04:48:05;;;;;;;4.40;2.70;;;;;;;;;;753440;183;617995;-65
2024/04/04 04:50:31;;;;;;;4.80;2.30;;;;;;;;;;762266;183;649030;-65
2024/04/04 04:52:57;;;;;;;3.77;2.30;;;;;;;;;;759375;183;634049;-66
2024/04/04 04:55:23;;;;;;;5.73;2.53;;;;;;;;;;756535;184;622905;-66
2024/04/04 04:57:49;;;;;;;4.10;2.07;;;;;;;;;;760629;183;664027;-66
2024/04/04 05:00:15;;;;;;;8.37;2.67;;;;;;;;;;760550;183;822146;-65
2024/04/04 05:02:41;;;;;;;5.72;2.45;;;;;;;;;;754141;183;912015;-65
2024/04/04 05:05:11;;;;;;;5.00;2.40;;;;;;;;;;763987;183;639423;-66
2024/04/04 05:07:37;;;;;;;3.50;1.80;;;;;;;;;;748294;183;811168;-65
2024/04/04 05:10:03;;;;;;;3.83;2.00;;;;;;;;;;760431;183;873384;-65
2024/04/04 05:12:29;;;;;;;3.78;1.80;;;;;;;;;;752796;184;815063;-65
2024/04/04 05:14:55;;;;;;;5.20;2.03;;;;;;;;;;759438;183;714037;-66
2024/04/04 05:17:21;;;;;;;3.97;2.10;;;;;;;;;;753817;183;917600;-69
2024/04/04 05:19:47;;;;;;;4.60;2.03;;;;;;;;;;749413;185;914720;-66
2024/04/04 05:22:12;;;;;;;4.53;2.53;;;;;;;;;;755270;184;822085;-65
2024/04/04 05:24:38;;;;;;;3.42;2.17;;;;;;;;;;760809;183;915603;-65
2024/04/04 05:27:04;;;;;;;4.07;2.23;;;;;;;;;;757865;183;781763;-65
2024/04/04 05:29:30;;;;;;;4.25;2.40;;;;;;;;;;759123;184;924642;-66
2024/04/04 05:31:56;;;;;;;4.83;2.33;;;;;;;;;;756936;183;711696;-66
2024/04/04 05:34:26;;;;;;;4.10;2.47;;;;;;;;;;759375;183;919796;-66
2024/04/04 05:36:47;;;;;;;3.80;2.47;;;;;;;;;;759740;184;629533;-66
2024/04/04 05:39:13;;;;;;;8.93;1.97;;;;;;;;;;750772;184;914980;-68
2024/04/04 05:41:41;;;;;;;5.03;2.53;;;;;;;;;;756861;183;918275;-66
2024/04/04 05:44:05;;;;;;;3.60;2.20;;;;;;;;;;752920;184;915547;-66
2024/04/04 05:46:31;;;;;;;3.20;1.90;;;;;;;;;;759499;184;920682;-66
2024/04/04 05:48:57;;;;;;;3.80;2.00;;;;;;;;;;753553;181;817585;-66
2024/04/04 05:51:23;;;;;;;6.33;2.37;;;;;;;;;;756031;184;924015;-67
2024/04/04 05:53:48;;;;;;;4.90;2.40;;;;;;;;;;765242;181;878520;-65
2024/04/04 05:56:14;;;;;;;4.40;2.30;;;;;;;;;;759348;183;934950;-66
2024/04/04 05:58:40;;;;;;;4.30;2.10;;;;;;;;;;756004;183;817733;-66
2024/04/04 06:01:06;;;;;;;4.13;1.97;;;;;;;;;;759431;184;924392;-66
2024/04/04 06:03:32;;;;;;;3.60;1.90;;;;;;;;;;760671;183;619065;-66
2024/04/04 06:05:58;;;;;;;4.90;2.00;;;;;;;;;;758797;183;619268;-67
2024/04/04 06:08:24;;;;;;;4.30;1.90;;;;;;;;;;760950;183;618184;-67
2024/04/04 06:10:50;;;;;;;6.70;2.43;;;;;;;;;;752797;184;635125;-65
2024/04/04 06:13:15;;;;;;;3.30;2.03;;;;;;;;;;764587;183;620677;-67
2024/04/04 06:15:45;;;;;;;3.00;1.50;;;;;;;;;;759590;183;656139;-66
2024/04/04 06:18:08;;;;;;;3.60;2.00;;;;;;;;;;757503;184;812079;-65
2024/04/04 06:20:33;;;;;;;2.70;1.40;;;;;;;;;;747464;184;913623;-66
2024/04/04 06:22:59;;;;;;;3.50;1.90;;;;;;;;;;753304;184;891962;-65
2024/04/04 06:25:25;;;;;;;3.10;1.43;;;;;;;;;;758263;183;810236;-66
2024/04/04 06:27:52;;;;;;;2.83;1.40;;;;;;;;;;756278;184;832499;-65
2024/04/04 06:30:16;;;;;;;4.12;2.12;;;;;;;;;;753350;184;898576;-65
2024/04/04 06:32:42;;;;;;;3.13;1.50;;;;;;;;;;755736;183;828108;-65
2024/04/04 06:35:08;;;;;;;3.00;1.73;;;;;;;;;;758475;183;917525;-67
2024/04/04 06:37:34;;;;;;;3.10;1.70;;;;;;;;;;754754;184;706915;-67
2024/04/04 06:40:00;;;;;;;3.55;1.58;;;;;;;;;;751549;184;815731;-68
2024/04/04 06:42:26;;;;;;;3.33;1.70;;;;;;;;;;756283;183;786373;-67
2024/04/04 06:44:52;;;;;;;2.80;1.50;;;;;;;;;;751614;183;813494;-65
2024/04/04 06:47:18;;;;;;;4.60;1.73;;;;;;;;;;755056;183;808482;-68
2024/04/04 06:49:43;;;;;;;4.20;1.70;;;;;;;;;;759906;184;734963;-66
2024/04/04 06:52:09;;;;;;;2.80;1.50;;;;;;;;;;754755;184;812745;-65
2024/04/04 06:54:35;;;;;;;2.40;1.17;;;;;;;;;;755322;184;900482;-66
2024/04/04 06:57:01;;;;;;;2.83;1.60;;;;;;;;;;758964;184;713626;-66
2024/04/04 06:59:27;;;;;;;3.07;1.37;;;;;;;;;;760134;183;833909;-66
2024/04/04 07:01:53;;;;;;;3.33;1.77;;;;;;;;;;756425;184;840333;-67
2024/04/04 07:04:19;;;;;;;3.23;1.80;;;;;;;;;;763799;183;650359;-67
2024/04/04 07:06:44;;;;;;;2.70;1.50;;;;;;;;;;760242;182;743785;-67
2024/04/04 07:09:10;;;;;;;3.47;1.80;;;;;;;;;;752732;184;946060;-68
2024/04/04 07:11:39;;;;;;;2.60;1.33;;;;;;;;;;759305;184;921444;-68
2024/04/04 07:14:02;;;;;;;3.07;1.90;;;;;;;;;;763967;183;630518;-67
2024/04/04 07:16:28;;;;;;;3.80;1.63;;;;;;;;;;760615;183;798393;-67
2024/04/04 07:18:54;;;;;;;2.57;1.40;;;;;;;;;;756550;184;712472;-66
2024/04/04 07:21:20;;;;;;;2.87;1.50;;;;;;;;;;762099;184;710497;-67
2024/04/04 07:23:45;;;;;;;2.63;1.30;;;;;;;;;;754890;184;874054;-67
2024/04/04 07:26:11;;;;;;;3.10;1.80;;;;;;;;;;756158;184;850389;-67
2024/04/04 07:28:37;;;;;;;4.23;1.90;;;;;;;;;;760091;184;903555;-68
2024/04/04 07:31:03;;;;;;;3.23;1.77;;;;;;;;;;754563;183;942944;-68
2024/04/04 07:33:29;;;;;;;3.47;1.60;;;;;;;;;;754735;184;717210;-66
2024/04/04 07:35:55;;;;;;;2.40;1.30;;;;;;;;;;760436;183;875336;-67
2024/04/04 07:38:21;;;;;;;2.80;1.53;;;;;;;;;;757065;183;812572;-66
2024/04/04 07:40:46;;;;;;;5.07;1.80;;;;;;;;;;752865;183;724569;-66
2024/04/04 07:43:13;;;;;;;3.83;1.80;;;;;;;;;;756970;184;914812;-70
2024/04/04 07:45:39;;;;;;;3.83;1.63;;;;;;;;;;761109;183;816500;-66
2024/04/04 07:48:05;;;;;;;3.70;2.20;;;;;;;;;;758185;180;941385;-67
2024/04/04 07:50:31;;;;;;;3.90;1.80;;;;;;;;;;752941;184;938239;-67
2024/04/04 07:52:57;;;;;;;2.50;1.47;;;;;;;;;;752106;185;917598;-66
2024/04/04 07:55:23;;;;;;;3.90;1.90;;;;;;;;;;755537;183;875005;-64
2024/04/04 07:57:48;;;;;;;2.70;1.77;;;;;;;;;;747644;184;919711;-66
2024/04/04 08:00:14;;;;;;;3.23;1.53;;;;;;;;;;756287;184;794350;-66
2024/04/04 08:02:41;;;;;;;3.20;1.97;;;;;;;;;;751246;184;915540;-66
2024/04/04 08:05:06;;;;;;;2.92;1.98;;;;;;;;;;756697;183;813281;-66
2024/04/04 08:07:36;;;;;;;3.80;2.00;;;;;;;;;;756711;183;916248;-66
2024/04/04 08:09:58;;;;;;;3.10;1.90;;;;;;;;;;754341;183;889692;-66
2024/04/04 08:12:23;;;;;;;2.73;1.60;;;;;;;;;;752013;183;920410;-65
2024/04/04 08:14:49;;;;;;;5.60;2.20;;;;;;;;;;754311;184;817092;-68
2024/04/04 08:17:15;;;;;;;3.47;2.30;;;;;;;;;;753705;182;916926;-65
2024/04/04 08:19:41;;;;;;;3.30;2.13;;;;;;;;;;761845;182;883683;-67
2024/04/04 08:22:10;;;;;;;8.20;2.00;;;;;;;;;;754655;183;914144;-67
2024/04/04 08:24:34;;;;;;;4.20;2.03;;;;;;;;;;762301;183;820096;-65
2024/04/04 08:26:59;;;;;;;3.20;1.83;;;;;;;;;;752381;184;920350;-67
2024/04/04 08:29:26;;;;;;;7.70;1.93;;;;;;;;;;758544;183;907782;-65
2024/04/04 08:31:50;;;;;;;3.40;1.75;;;;;;;;;;761100;184;746769;-66
2024/04/04 08:34:16;;;;;;;4.30;1.97;;;;;;;;;;758001;184;912904;-66
2024/04/04 08:36:42;;;;;;;3.20;1.87;;;;;;;;;;753052;183;812276;-67
2024/04/04 08:39:08;;;;;;;3.67;1.70;;;;;;;;;;759244;183;710475;-68
2024/04/04 08:41:34;;;;;;;3.43;1.87;;;;;;;;;;757067;184;926363;-68
2024/04/04 08:44:00;;;;;;;2.90;1.60;;;;;;;;;;755269;183;973256;-69
2024/04/04 08:46:26;;;;;;;2.65;1.60;;;;;;;;;;752672;184;923187;-68
2024/04/04 08:48:52;;;;;;;2.80;1.67;;;;;;;;;;763767;183;867434;-68
2024/04/04 08:51:19;;;;;;;3.83;2.00;;;;;;;;;;760400;183;916398;-67
2024/04/04 08:53:43;;;;;;;2.80;1.90;;;;;;;;;;750593;184;883017;-67
2024/04/04 08:56:09;;;;;;;5.17;2.10;;;;;;;;;;760183;183;817555;-68
2024/04/04 08:58:36;;;;;;;3.53;2.40;;;;;;;;;;757866;183;712221;-68
2024/04/04 09:01:01;;;;;;;3.23;1.60;;;;;;;;;;754631;183;813540;-69
2024/04/04 09:03:27;;;;;;;4.00;1.77;;;;;;;;;;761240;183;799720;-69
2024/04/04 09:05:53;;;;;;;3.27;1.83;;;;;;;;;;753241;184;943211;-68
2024/04/04 09:08:19;;;;;;;2.90;1.80;;;;;;;;;;761049;183;792456;-69
2024/04/04 09:10:48;;;;;;;3.40;2.00;;;;;;;;;;763344;183;715747;-69
2024/04/04 09:13:11;;;;;;;3.00;1.70;;;;;;;;;;762737;181;729325;-68
2024/04/04 09:15:37;;;;;;;2.73;1.43;;;;;;;;;;759705;183;820211;-69
2024/04/04 09:18:05;;;;;;;3.07;1.67;;;;;;;;;;760174;183;802232;-69
2024/04/04 09:20:32;;;;;;;5.60;1.70;;;;;;;;;;752162;184;814811;-68
2024/04/04 09:22:59;;;;;;;2.70;1.67;;;;;;;;;;760172;183;706030;-69
2024/04/04 09:25:24;;;;;;;4.13;1.90;;;;;;;;;;752432;184;701444;-68
2024/04/04 09:27:49;;;;;;;4.03;2.00;;;;;;;;;;760651;182;802277;-69
2024/04/04 09:30:16;;;;;;;3.17;1.87;;;;;;;;;;752191;183;820766;-68
2024/04/04 09:32:42;;;;;;;3.00;1.90;;;;;;;;;;755504;184;810478;-67
2024/04/04 09:35:08;;;;;;;3.40;1.90;;;;;;;;;;762801;183;861665;-69
2024/04/04 09:37:34;;;;;;;3.43;2.10;;;;;;;;;;754871;184;775973;-67
2024/04/04 09:39:59;;;;;;;4.60;2.40;;;;;;;;;;752033;184;811037;-68
2024/04/04 09:42:24;;;;;;;3.43;1.80;;;;;;;;;;759772;184;805655;-67
2024/04/04 09:44:50;;;;;;;3.20;1.80;;;;;;;;;;760081;183;748169;-66
2024/04/04 09:47:16;;;;;;;3.93;2.10;;;;;;;;;;758147;183;889819;-67
2024/04/04 09:49:42;;;;;;;3.07;1.53;;;;;;;;;;755670;183;919760;-66
2024/04/04 09:52:08;;;;;;;4.13;2.20;;;;;;;;;;759740;183;903456;-67
2024/04/04 09:54:34;;;;;;;2.80;1.73;;;;;;;;;;758214;183;628313;-66
2024/04/04 09:57:00;;;;;;;2.70;1.60;;;;;;;;;;757256;184;915416;-67
2024/04/04 09:59:25;;;;;;;4.37;2.40;;;;;;;;;;765573;183;816733;-66
2024/04/04 10:01:51;;;;;;;3.13;1.80;;;;;;;;;;761970;183;803040;-67
2024/04/04 10:04:19;;;;;;;3.83;1.80;;;;;;;;;;758736;184;709626;-66
2024/04/04 10:06:44;;;;;;;5.60;2.30;;;;;;;;;;754875;184;873160;-66
2024/04/04 10:09:15;;;;;;;2.80;1.80;;;;;;;;;;755096;185;741357;-65
2024/04/04 10:11:41;;;;;;;5.00;2.17;;;;;;;;;;752424;183;903269;-66
2024/04/04 10:14:07;;;;;;;3.57;2.07;;;;;;;;;;750923;184;921955;-66
2024/04/04 10:16:34;;;;;;;4.87;1.97;;;;;;;;;;759016;183;814114;-67
2024/04/04 10:19:10;;;;;;;3.00;1.97;;;;;;;;;;752887;184;868985;-66
2024/04/04 10:21:37;;;;;;;3.67;1.80;;;;;;;;;;754432;184;909195;-65
2024/04/04 10:24:03;;;;;;;3.03;1.90;;;;;;;;;;755763;183;918516;-67
2024/04/04 10:26:29;;;;;;;3.43;1.50;;;;;;;;;;759020;183;818595;-66
2024/04/04 10:28:56;;;;;;;3.20;1.90;;;;;;;;;;754448;184;918270;-67
2024/04/04 10:31:20;;;;;;;3.87;2.07;;;;;;;;;;753597;183;894263;-67
2024/04/04 10:33:46;;;;;;;3.83;2.37;;;;;;;;;;761380;183;917386;-67
2024/04/04 10:36:12;;;;;;;4.10;1.87;;;;;;;;;;758831;183;854377;-67
2024/04/04 10:38:38;;;;;;;3.93;2.00;;;;;;;;;;753100;181;918231;-67
2024/04/04 10:41:04;;;;;;;2.97;2.08;;;;;;;;;;758695;183;918050;-67
2024/04/04 10:43:30;;;;;;;4.03;2.10;;;;;;;;;;757846;184;673595;-67
2024/04/04 10:45:55;;;;;;;4.07;2.97;;;;;;;;;;755418;184;913591;-67
2024/04/04 10:48:21;;;;;;;2.50;1.45;;;;;;;;;;753245;183;719084;-68
2024/04/04 10:50:47;;;;;;;3.03;1.87;;;;;;;;;;762884;182;796619;-66
2024/04/04 10:53:13;;;;;;;3.43;1.70;;;;;;;;;;760555;181;738585;-67
2024/04/04 10:55:39;;;;;;;2.77;1.80;;;;;;;;;;759676;183;631636;-67
2024/04/04 10:58:08;;;;;;;3.20;1.87;;;;;;;;;;765609;183;798877;-67
2024/04/04 11:00:35;;;;;;;2.93;1.73;;;;;;;;;;754338;183;803432;-68
2024/04/04 11:02:59;;;;;;;3.40;2.12;;;;;;;;;;754051;184;713065;-67
2024/04/04 11:05:25;;;;;;;5.17;1.90;;;;;;;;;;761183;183;960875;-67
2024/04/04 11:07:57;;;;;;;3.23;2.00;;;;;;;;;;757506;183;803042;-67
2024/04/04 11:10:20;;;;;;;4.50;1.73;;;;;;;;;;757644;183;817709;-67
2024/04/04 11:12:46;;;;;;;3.77;1.93;;;;;;;;;;755237;183;817380;-67
2024/04/04 11:15:12;;;;;;;4.70;2.30;;;;;;;;;;758082;183;798351;-66
2024/04/04 11:17:38;;;;;;;3.10;1.80;;;;;;;;;;759149;183;817485;-67
2024/04/04 11:20:06;;;;;;;3.10;1.62;;;;;;;;;;758211;184;726017;-67
2024/04/04 11:22:32;;;;;;;3.33;1.70;;;;;;;;;;757572;183;912526;-66
2024/04/04 11:24:58;;;;;;;4.10;1.80;;;;;;;;;;755988;183;860210;-68
2024/04/04 11:27:24;;;;;;;4.03;2.13;;;;;;;;;;750978;184;650882;-67
2024/04/04 11:29:50;;;;;;;5.30;2.03;;;;;;;;;;755922;184;916901;-68
2024/04/04 11:32:16;;;;;;;4.33;1.80;;;;;;;;;;747600;184;904817;-67
2024/04/04 11:34:42;;;;;;;3.10;1.70;;;;;;;;;;749590;184;962852;-67
2024/04/04 11:37:08;;;;;;;5.80;1.80;;;;;;;;;;750739;184;823546;-67
2024/04/04 11:39:34;;;;;;;4.80;2.50;;;;;;;;;;763473;183;1020367;-66
2024/04/04 11:41:59;;;;;;;3.43;2.13;;;;;;;;;;754716;183;914424;-67
2024/04/04 11:44:25;;;;;;;3.07;1.90;;;;;;;;;;757121;183;911177;-68
2024/04/04 11:46:51;;;;;;;3.00;2.00;;;;;;;;;;757239;185;614793;-66
2024/04/04 11:49:18;;;;;;;13.93;3.00;;;;;;;;;;754042;183;816179;-67
2024/04/04 11:51:43;;;;;;;3.77;2.93;;;;;;;;;;755833;182;893119;-67
2024/04/04 11:54:08;;;;;;;3.90;2.07;;;;;;;;;;761322;183;918045;-67
2024/04/04 11:56:34;;;;;;;3.83;1.77;;;;;;;;;;755598;183;919932;-66
2024/04/04 11:59:00;;;;;;;3.30;2.20;;;;;;;;;;757898;184;868318;-66
2024/04/04 12:01:26;;;;;;;3.73;1.90;;;;;;;;;;762702;183;916274;-67
2024/04/04 12:03:52;;;;;;;3.03;2.00;;;;;;;;;;758643;183;923134;-67
2024/04/04 12:06:18;;;;;;;3.73;2.03;;;;;;;;;;760510;183;848251;-67
2024/04/04 12:08:44;;;;;;;3.20;2.28;;;;;;;;;;759368;183;917438;-67
2024/04/04 12:11:12;;;;;;;4.17;1.63;;;;;;;;;;756579;183;694172;-66
2024/04/04 12:13:36;;;;;;;3.30;1.53;;;;;;;;;;758462;183;820865;-64
2024/04/04 12:16:02;;;;;;;4.07;2.30;;;;;;;;;;756241;184;814879;-67
2024/04/04 12:20:59;;;;;;;2.90;1.50;;;;;;;;;;754282;184;814123;-65
2024/04/04 12:23:25;;;;;;;2.80;1.40;;;;;;;;;;755861;184;805279;-67
2024/04/04 12:25:51;;;;;;;3.10;1.83;;;;;;;;;;761108;183;759802;-67
2024/04/04 12:28:19;;;;;;;3.10;1.80;;;;;;;;;;752679;184;821959;-67
2024/04/04 12:30:43;;;;;;;3.17;1.80;;;;;;;;;;752950;183;664428;-66
2024/04/04 12:33:09;;;;;;;4.47;2.10;;;;;;;;;;756299;183;718756;-67
2024/04/04 12:35:34;;;;;;;2.73;1.50;;;;;;;;;;759272;183;719477;-66
2024/04/04 12:38:00;;;;;;;3.95;1.58;;;;;;;;;;755240;183;809342;-66
2024/04/04 12:40:26;;;;;;;4.20;1.70;;;;;;;;;;749289;184;878302;-65
2024/04/04 12:42:52;;;;;;;2.97;1.97;;;;;;;;;;755101;184;928788;-67
2024/04/04 12:45:18;;;;;;;3.70;1.83;;;;;;;;;;756324;183;810356;-66
2024/04/04 12:47:44;;;;;;;3.53;1.77;;;;;;;;;;755102;183;810602;-67
2024/04/04 12:50:10;;;;;;;3.60;1.80;;;;;;;;;;759871;184;720019;-66
2024/04/04 12:52:35;;;;;;;3.20;1.73;;;;;;;;;;761760;183;746099;-65
2024/04/04 12:55:01;;;;;;;6.10;1.90;;;;;;;;;;759691;183;819829;-66
2024/04/04 12:57:27;;;;;;;3.60;1.60;;;;;;;;;;757425;183;724999;-67
2024/04/04 12:59:54;;;;;;;2.87;1.77;;;;;;;;;;757265;183;779748;-68
2024/04/04 13:02:19;;;;;;;3.00;1.53;;;;;;;;;;757183;183;730399;-66
2024/04/04 13:04:45;;;;;;;3.40;1.37;;;;;;;;;;756336;183;810927;-67
2024/04/04 13:07:10;;;;;;;3.30;1.47;;;;;;;;;;763354;182;918941;-66
2024/04/04 13:09:37;;;;;;;3.60;1.97;;;;;;;;;;760776;183;818597;-66
2024/04/04 13:12:03;;;;;;;3.50;1.48;;;;;;;;;;757316;184;800567;-66
2024/04/04 13:14:28;;;;;;;4.17;1.40;;;;;;;;;;757874;183;839964;-66
2024/04/04 13:16:56;;;;;;;3.50;1.40;;;;;;;;;;753300;183;916609;-67
2024/04/04 13:19:20;;;;;;;3.90;1.67;;;;;;;;;;762685;183;637790;-68
2024/04/04 13:21:46;;;;;;;3.00;1.20;;;;;;;;;;761662;184;627684;-67
2024/04/04 13:24:12;;;;;;;3.50;1.53;;;;;;;;;;756318;184;752032;-67
2024/04/04 13:26:37;;;;;;;2.70;1.63;;;;;;;;;;753271;184;801800;-67
2024/04/04 13:29:03;;;;;;;4.50;2.00;;;;;;;;;;754667;184;624864;-67
2024/04/04 13:31:29;;;;;;;4.83;1.10;;;;;;;;;;742483;184;947253;-67
2024/04/04 13:33:55;;;;;;;3.93;1.40;;;;;;;;;;747176;185;920106;-66
2024/04/04 13:36:21;;;;;;;2.67;0.90;;;;;;;;;;730381;190;914402;-67
2024/04/04 13:38:46;;;;;;;2.93;1.10;;;;;;;;;;762082;183;918378;-66
2024/04/04 13:41:12;;;;;;;4.63;1.10;;;;;;;;;;756760;183;1017446;-67
2024/04/04 13:43:38;;;;;;;3.33;1.10;;;;;;;;;;756086;184;827998;-67
2024/04/04 13:46:04;;;;;;;2.67;0.90;;;;;;;;;;760542;183;813015;-67
2024/04/04 13:48:30;;;;;;;5.80;1.27;;;;;;;;;;757019;183;919333;-67
2024/04/04 13:50:56;;;;;;;3.42;1.10;;;;;;;;;;758149;183;798923;-67
2024/04/04 13:53:22;;;;;;;3.93;1.20;;;;;;;;;;757469;184;918244;-67
2024/04/04 13:55:47;;;;;;;2.80;0.90;;;;;;;;;;753338;183;899579;-67
2024/04/04 13:58:13;;;;;;;4.80;1.03;;;;;;;;;;754521;184;719950;-67
2024/04/04 14:00:39;;;;;;;2.30;0.97;;;;;;;;;;765778;183;643368;-67
2024/04/04 14:03:05;;;;;;;3.33;1.00;;;;;;;;;;757527;184;817281;-66
2024/04/04 14:05:31;;;;;;;2.83;1.07;;;;;;;;;;751925;183;916233;-67
2024/04/04 14:07:57;;;;;;;2.80;1.00;;;;;;;;;;754424;184;703844;-68
2024/04/04 14:10:22;;;;;;;2.40;1.03;;;;;;;;;;757634;183;628320;-69
2024/04/04 14:12:50;;;;;;;2.33;0.93;;;;;;;;;;759606;183;914887;-68
2024/04/04 14:15:14;;;;;;;2.93;1.30;;;;;;;;;;761260;182;715054;-69
2024/04/04 14:17:40;;;;;;;5.07;1.30;;;;;;;;;;764012;182;782178;-67
2024/04/04 14:20:06;;;;;;;2.20;0.80;;;;;;;;;;756426;184;816744;-68
2024/04/04 14:22:32;;;;;;;4.93;1.43;;;;;;;;;;753939;184;815865;-69